Time;durP1;ratioP1;P1;durP2;ratioP2;P2;SDS_P1;SDS_P2;PMS_P1;PMS_P2;Temp;Humidity;BMP_temperature;BMP_pressure;BME280_temperature;BME280_humidity;BME280_pressure;Samples;Min_cycle;Max_cycle;Signal;HPM_P1;HPM_P2
2021/12/31 00:00:04;;;;;;;;;;;16.30;67.80;;;;;;5114786;28;19908;-68
2021/12/31 00:02:30;;;;;;;;;;;16.30;67.80;;;;;;5114021;28;19908;-68
2021/12/31 00:04:59;;;;;;;;;;;16.30;67.80;;;;;;5113955;28;20426;-68
2021/12/31 00:07:24;;;;;;;;;;;16.30;67.70;;;;;;5114076;28;19998;-68
2021/12/31 00:09:50;;;;;;;;;;;16.40;67.70;;;;;;5114098;28;20016;-68
2021/12/31 00:12:16;;;;;;;;;;;16.30;67.60;;;;;;5113696;27;19915;-68
2021/12/31 00:14:41;;;;;;;;;;;16.30;67.60;;;;;;5113973;28;20266;-68
2021/12/31 00:17:07;;;;;;;;;;;16.30;67.60;;;;;;5113756;28;20278;-68
2021/12/31 00:19:38;;;;;;;;;;;16.30;67.50;;;;;;5113968;28;19915;-68
2021/12/31 00:22:23;;;;;;;;;;;16.30;67.50;;;;;;5113995;28;19912;-68
2021/12/31 00:24:49;;;;;;;;;;;16.30;67.50;;;;;;5114026;28;19943;-68
2021/12/31 00:27:14;;;;;;;;;;;16.30;67.50;;;;;;5113877;28;20442;-68
2021/12/31 00:29:40;;;;;;;;;;;16.30;67.50;;;;;;5113959;28;20007;-68
2021/12/31 00:32:06;;;;;;;;;;;16.30;67.50;;;;;;5113956;28;20388;-68
2021/12/31 00:34:31;;;;;;;;;;;16.30;67.50;;;;;;5113836;28;20319;-68
2021/12/31 00:36:57;;;;;;;;;;;16.20;67.50;;;;;;5113741;28;20382;-68
2021/12/31 00:39:23;;;;;;;;;;;16.30;67.50;;;;;;5113866;28;19908;-68
2021/12/31 00:41:48;;;;;;;;;;;16.30;67.60;;;;;;5113777;28;19969;-68
2021/12/31 00:44:14;;;;;;;;;;;16.30;67.60;;;;;;5113661;28;19908;-68
2021/12/31 00:46:40;;;;;;;;;;;16.30;67.60;;;;;;5113713;28;19953;-68
2021/12/31 00:49:06;;;;;;;;;;;16.30;67.60;;;;;;5113690;28;19953;-67
2021/12/31 00:51:32;;;;;;;;;;;16.30;67.60;;;;;;5113563;28;19912;-68
2021/12/31 00:53:58;;;;;;;;;;;16.30;67.50;;;;;;5113707;28;19953;-68
2021/12/31 00:56:23;;;;;;;;;;;16.30;67.50;;;;;;5113552;28;19912;-67
2021/12/31 00:58:49;;;;;;;;;;;16.30;67.50;;;;;;5113617;28;19907;-68
2021/12/31 01:01:20;;;;;;;;;;;16.30;67.50;;;;;;5113522;28;20002;-68
2021/12/31 01:03:46;;;;;;;;;;;16.30;67.50;;;;;;5113540;28;19908;-68
2021/12/31 01:06:12;;;;;;;;;;;16.30;67.50;;;;;;5113497;28;19912;-68
2021/12/31 01:08:38;;;;;;;;;;;16.30;67.50;;;;;;5113456;28;19915;-68
2021/12/31 01:11:03;;;;;;;;;;;16.30;67.50;;;;;;5112216;28;20273;-68
2021/12/31 01:13:48;;;;;;;;;;;16.30;67.50;;;;;;5113520;28;19958;-68
2021/12/31 01:16:14;;;;;;;;;;;16.30;67.50;;;;;;5113247;28;20060;-67
2021/12/31 01:21:26;;;;;;;;;;;16.30;67.40;;;;;;5101927;28;19915;-68
2021/12/31 01:23:52;;;;;;;;;;;16.40;67.50;;;;;;5113483;28;19912;-68
2021/12/31 01:26:18;;;;;;;;;;;16.30;67.40;;;;;;5117423;28;19915;-67
2021/12/31 01:28:44;;;;;;;;;;;16.30;67.30;;;;;;5117001;28;19907;-68
2021/12/31 01:31:10;;;;;;;;;;;16.30;67.30;;;;;;5117024;28;19909;-68
2021/12/31 01:33:35;;;;;;;;;;;16.30;67.30;;;;;;5116988;28;19915;-68
2021/12/31 01:36:01;;;;;;;;;;;16.30;67.30;;;;;;5116842;28;20368;-67
2021/12/31 01:38:28;;;;;;;;;;;16.30;67.30;;;;;;5116939;28;19951;-68
2021/12/31 01:40:54;;;;;;;;;;;16.30;67.30;;;;;;5116837;28;19998;-68
2021/12/31 01:43:20;;;;;;;;;;;16.30;67.30;;;;;;5116721;28;19951;-67
2021/12/31 01:45:55;;;;;;;;;;;16.30;67.40;;;;;;5117103;28;20416;-68
2021/12/31 01:48:37;;;;;;;;;;;16.30;67.40;;;;;;5116760;28;19908;-68
2021/12/31 01:51:03;;;;;;;;;;;16.30;67.50;;;;;;5116524;28;19908;-68
2021/12/31 01:53:28;;;;;;;;;;;16.30;67.50;;;;;;5116624;28;19956;-68
2021/12/31 01:55:56;;;;;;;;;;;16.30;67.40;;;;;;5116556;28;20032;-68
2021/12/31 01:58:23;;;;;;;;;;;16.30;67.50;;;;;;5116455;28;19959;-68
2021/12/31 02:00:48;;;;;;;;;;;16.30;67.50;;;;;;5116502;28;19973;-67
2021/12/31 02:03:14;;;;;;;;;;;16.40;67.50;;;;;;5116283;28;19908;-68
2021/12/31 02:05:40;;;;;;;;;;;16.40;67.50;;;;;;5116279;27;19908;-68
2021/12/31 02:08:05;;;;;;;;;;;16.40;67.50;;;;;;5114918;28;19991;-67
2021/12/31 02:10:31;;;;;;;;;;;16.40;67.50;;;;;;5116185;28;19912;-68
2021/12/31 02:12:57;;;;;;;;;;;16.40;67.40;;;;;;5116076;28;19908;-68
2021/12/31 02:15:22;;;;;;;;;;;16.50;67.50;;;;;;5114809;28;19912;-67
2021/12/31 02:17:48;;;;;;;;;;;16.50;67.40;;;;;;5115823;28;20010;-67
2021/12/31 02:20:17;;;;;;;;;;;16.50;67.40;;;;;;5115970;27;20357;-68
2021/12/31 02:22:50;;;;;;;;;;;16.50;67.40;;;;;;5115921;28;20369;-68
2021/12/31 02:25:18;;;;;;;;;;;16.50;67.20;;;;;;5115915;28;19908;-67
2021/12/31 02:27:44;;;;;;;;;;;16.60;67.20;;;;;;5115978;28;20003;-68
2021/12/31 02:30:10;;;;;;;;;;;16.60;67.20;;;;;;5115766;28;19994;-67
2021/12/31 02:32:35;;;;;;;;;;;16.60;67.20;;;;;;5115786;27;19946;-67
2021/12/31 02:35:01;;;;;;;;;;;16.60;67.20;;;;;;5115459;28;19913;-68
2021/12/31 02:37:27;;;;;;;;;;;16.60;67.20;;;;;;5115667;27;20373;-68
2021/12/31 02:39:53;;;;;;;;;;;16.60;67.10;;;;;;5115743;28;19908;-67
2021/12/31 02:42:18;;;;;;;;;;;16.60;67.10;;;;;;5115563;28;20371;-68
2021/12/31 02:44:44;;;;;;;;;;;16.60;67.00;;;;;;5115480;27;20366;-68
2021/12/31 02:47:10;;;;;;;;;;;16.60;66.90;;;;;;5115528;28;20377;-68
2021/12/31 02:49:39;;;;;;;;;;;16.50;66.70;;;;;;5115353;28;20000;-68
2021/12/31 02:52:05;;;;;;;;;;;16.50;66.80;;;;;;5114127;28;20025;-67
2021/12/31 02:54:32;;;;;;;;;;;16.50;66.90;;;;;;5115363;28;19908;-67
2021/12/31 02:56:58;;;;;;;;;;;16.60;66.90;;;;;;5115248;28;19912;-67
2021/12/31 02:59:23;;;;;;;;;;;16.60;66.80;;;;;;5115194;28;19908;-68
2021/12/31 03:01:49;;;;;;;;;;;16.60;66.70;;;;;;5115201;28;20404;-68
2021/12/31 03:04:16;;;;;;;;;;;16.60;66.60;;;;;;5115097;28;19915;-68
2021/12/31 03:06:42;;;;;;;;;;;16.60;66.60;;;;;;5115058;28;19911;-67
2021/12/31 03:09:09;;;;;;;;;;;16.60;66.50;;;;;;5113709;28;20322;-68
2021/12/31 03:11:34;;;;;;;;;;;16.50;66.40;;;;;;5113713;28;19908;-68
2021/12/31 03:14:00;;;;;;;;;;;16.50;66.30;;;;;;5114958;28;19908;-68
2021/12/31 03:16:26;;;;;;;;;;;16.50;66.20;;;;;;5114571;28;19927;-68
2021/12/31 03:18:52;;;;;;;;;;;16.50;66.30;;;;;;5114876;28;19919;-67
2021/12/31 03:21:22;;;;;;;;;;;16.50;66.40;;;;;;5114845;28;20261;-67
2021/12/31 03:23:52;;;;;;;;;;;16.50;66.40;;;;;;5114793;28;19908;-68
2021/12/31 03:26:18;;;;;;;;;;;16.50;66.40;;;;;;5114778;27;20345;-68
2021/12/31 03:28:44;;;;;;;;;;;16.50;66.40;;;;;;5114691;28;19999;-67
2021/12/31 03:31:09;;;;;;;;;;;16.50;66.40;;;;;;5114632;28;20033;-68
2021/12/31 03:33:35;;;;;;;;;;;16.50;66.30;;;;;;5114879;28;19956;-67
2021/12/31 03:36:00;;;;;;;;;;;16.50;66.30;;;;;;5114475;28;19912;-68
2021/12/31 03:38:26;;;;;;;;;;;16.50;66.20;;;;;;5114431;28;19922;-68
2021/12/31 03:40:52;;;;;;;;;;;16.50;66.20;;;;;;5114515;28;20002;-68
2021/12/31 03:43:17;;;;;;;;;;;16.50;66.20;;;;;;5113009;28;20373;-68
2021/12/31 03:45:44;;;;;;;;;;;16.50;66.10;;;;;;5114434;28;19908;-68
2021/12/31 03:48:09;;;;;;;;;;;16.50;66.10;;;;;;5112197;28;19915;-67
2021/12/31 03:50:35;;;;;;;;;;;16.40;65.90;;;;;;5114355;28;19908;-68
2021/12/31 03:53:01;;;;;;;;;;;16.40;65.80;;;;;;5114251;28;19911;-68
2021/12/31 03:55:27;;;;;;;;;;;16.40;65.90;;;;;;5114233;28;20373;-68
2021/12/31 03:57:52;;;;;;;;;;;16.30;65.90;;;;;;5114158;28;20007;-68
2021/12/31 04:00:18;;;;;;;;;;;16.30;66.00;;;;;;5114058;28;19914;-68
2021/12/31 04:02:44;;;;;;;;;;;16.30;66.00;;;;;;5114111;28;19908;-68
2021/12/31 04:05:09;;;;;;;;;;;16.20;66.10;;;;;;5114080;28;19915;-67
2021/12/31 04:07:35;;;;;;;;;;;16.20;66.10;;;;;;5114312;28;19915;-68
2021/12/31 04:10:01;;;;;;;;;;;16.20;66.20;;;;;;5112702;28;20304;-67
2021/12/31 04:12:26;;;;;;;;;;;16.20;66.20;;;;;;5114007;28;19973;-67
2021/12/31 04:14:52;;;;;;;;;;;16.20;66.30;;;;;;5113953;28;19907;-68
2021/12/31 04:17:17;;;;;;;;;;;16.20;66.20;;;;;;5113625;28;20361;-67
2021/12/31 04:19:51;;;;;;;;;;;16.20;66.30;;;;;;5113354;28;20155;-68
2021/12/31 04:22:16;;;;;;;;;;;16.30;66.40;;;;;;5113950;28;19953;-68
2021/12/31 04:27:11;;;;;;;;;;;16.20;66.20;;;;;;5113848;28;19908;-68
2021/12/31 04:29:37;;;;;;;;;;;16.30;66.30;;;;;;5112556;28;19957;-67
2021/12/31 04:32:03;;;;;;;;;;;16.20;66.20;;;;;;5113978;28;19908;-67
2021/12/31 04:34:28;;;;;;;;;;;16.20;66.10;;;;;;5113819;28;19908;-67
2021/12/31 04:36:54;;;;;;;;;;;16.20;66.10;;;;;;5113648;28;20408;-67
2021/12/31 04:39:20;;;;;;;;;;;16.20;66.10;;;;;;5113693;28;19908;-67
2021/12/31 04:41:45;;;;;;;;;;;16.20;66.10;;;;;;5113596;28;19908;-68
2021/12/31 04:44:11;;;;;;;;;;;16.20;66.10;;;;;;5113510;28;19912;-67
2021/12/31 04:46:37;;;;;;;;;;;16.20;66.10;;;;;;5113562;28;19907;-67
2021/12/31 04:49:03;;;;;;;;;;;16.20;66.00;;;;;;5113584;28;19908;-67
2021/12/31 04:51:28;;;;;;;;;;;16.10;65.90;;;;;;5112298;28;19907;-67
2021/12/31 04:53:54;;;;;;;;;;;16.10;65.90;;;;;;5113604;28;19908;-67
2021/12/31 04:56:20;;;;;;;;;;;16.10;65.90;;;;;;5113453;28;19916;-67
2021/12/31 04:58:45;;;;;;;;;;;16.10;65.90;;;;;;5115069;28;19993;-67
2021/12/31 05:01:11;;;;;;;;;;;16.00;65.90;;;;;;5117469;28;19912;-67
2021/12/31 05:03:36;;;;;;;;;;;16.00;65.80;;;;;;5117336;28;19948;-67
2021/12/31 05:06:02;;;;;;;;;;;16.00;65.70;;;;;;5117316;28;19925;-67
2021/12/31 05:08:28;;;;;;;;;;;15.90;65.70;;;;;;5117359;28;19908;-67
2021/12/31 05:10:53;;;;;;;;;;;15.90;65.70;;;;;;5117272;28;20006;-67
2021/12/31 05:13:20;;;;;;;;;;;15.80;66.40;;;;;;5117202;28;19911;-67
2021/12/31 05:15:48;;;;;;;;;;;15.80;65.80;;;;;;5117201;28;19907;-67
2021/12/31 05:18:14;;;;;;;;;;;15.80;65.90;;;;;;5116112;28;20365;-67
2021/12/31 05:20:40;;;;;;;;;;;15.70;65.90;;;;;;5117436;28;19964;-67
2021/12/31 05:23:05;;;;;;;;;;;15.70;65.90;;;;;;5117347;28;20396;-67
2021/12/31 05:25:31;;;;;;;;;;;15.60;65.90;;;;;;5117045;28;19912;-67
2021/12/31 05:27:57;;;;;;;;;;;15.60;66.00;;;;;;5117031;28;20199;-67
2021/12/31 05:30:22;;;;;;;;;;;15.60;66.10;;;;;;5116904;28;19915;-67
2021/12/31 05:32:48;;;;;;;;;;;15.50;66.10;;;;;;5116901;28;20293;-67
2021/12/31 05:35:14;;;;;;;;;;;15.50;66.30;;;;;;5116780;28;19907;-67
2021/12/31 05:37:39;;;;;;;;;;;15.50;66.30;;;;;;5116781;28;19912;-67
2021/12/31 05:40:05;;;;;;;;;;;15.50;66.30;;;;;;5115410;28;20323;-67
2021/12/31 05:42:31;;;;;;;;;;;15.50;66.30;;;;;;5116667;28;19918;-67
2021/12/31 05:44:57;;;;;;;;;;;15.50;66.40;;;;;;5116525;28;19907;-67
2021/12/31 05:47:23;;;;;;;;;;;15.50;66.40;;;;;;5116686;28;20424;-67
2021/12/31 05:49:49;;;;;;;;;;;15.50;66.40;;;;;;5116628;28;19908;-67
2021/12/31 05:52:14;;;;;;;;;;;15.50;66.40;;;;;;5116556;28;20425;-67
2021/12/31 05:54:40;;;;;;;;;;;15.50;66.50;;;;;;5116568;28;19908;-67
2021/12/31 05:57:06;;;;;;;;;;;15.50;66.50;;;;;;5116414;28;19919;-67
2021/12/31 05:59:31;;;;;;;;;;;15.50;66.50;;;;;;5116425;28;19964;-68
2021/12/31 06:01:57;;;;;;;;;;;15.50;66.50;;;;;;5116395;28;20276;-68
2021/12/31 06:04:22;;;;;;;;;;;15.50;66.50;;;;;;5116327;28;19976;-68
2021/12/31 06:06:48;;;;;;;;;;;15.50;66.50;;;;;;5116312;28;19915;-67
2021/12/31 06:09:14;;;;;;;;;;;15.50;66.50;;;;;;5116335;28;19908;-67
2021/12/31 06:11:40;;;;;;;;;;;15.50;66.60;;;;;;5115599;28;19908;-67
2021/12/31 06:14:06;;;;;;;;;;;15.50;66.60;;;;;;5116178;28;19907;-67
2021/12/31 06:16:42;;;;;;;;;;;15.50;66.70;;;;;;5115908;28;19923;-67
2021/12/31 06:19:08;;;;;;;;;;;15.50;66.70;;;;;;5116078;28;19915;-67
2021/12/31 06:21:34;;;;;;;;;;;15.50;66.80;;;;;;5116022;28;19908;-67
2021/12/31 06:24:00;;;;;;;;;;;15.50;66.70;;;;;;5115945;28;19908;-68
2021/12/31 06:26:26;;;;;;;;;;;15.50;66.60;;;;;;5115920;28;19974;-67
2021/12/31 06:28:52;;;;;;;;;;;15.50;66.50;;;;;;5115914;28;19908;-68
2021/12/31 06:31:17;;;;;;;;;;;15.50;66.40;;;;;;5115828;28;19908;-67
2021/12/31 06:33:43;;;;;;;;;;;15.50;66.40;;;;;;5115742;28;20377;-67
2021/12/31 06:36:08;;;;;;;;;;;15.50;66.40;;;;;;5115731;27;20010;-67
2021/12/31 06:38:34;;;;;;;;;;;15.50;66.40;;;;;;5115674;28;19908;-67
2021/12/31 06:40:59;;;;;;;;;;;15.50;66.40;;;;;;5115562;28;19914;-67
2021/12/31 06:43:25;;;;;;;;;;;15.50;66.50;;;;;;5115408;28;20276;-67
2021/12/31 06:45:51;;;;;;;;;;;15.40;66.40;;;;;;5114182;28;20010;-67
2021/12/31 06:48:16;;;;;;;;;;;15.40;66.40;;;;;;5115401;28;20260;-67
2021/12/31 06:50:42;;;;;;;;;;;15.40;66.40;;;;;;5115473;28;19908;-67
2021/12/31 06:53:07;;;;;;;;;;;15.40;66.40;;;;;;5115363;28;19940;-67
2021/12/31 06:55:33;;;;;;;;;;;15.40;66.40;;;;;;5115354;28;19914;-67
2021/12/31 06:57:59;;;;;;;;;;;15.40;66.40;;;;;;5115164;28;19911;-67
2021/12/31 07:00:25;;;;;;;;;;;15.40;66.50;;;;;;5115286;28;20295;-67
2021/12/31 07:02:50;;;;;;;;;;;15.40;66.40;;;;;;5115184;28;19915;-67
2021/12/31 07:05:16;;;;;;;;;;;15.40;66.20;;;;;;5115215;28;19912;-67
2021/12/31 07:07:42;;;;;;;;;;;15.40;66.30;;;;;;5113848;28;20360;-68
2021/12/31 07:10:08;;;;;;;;;;;15.30;66.20;;;;;;5115082;28;20047;-68
2021/12/31 07:12:34;;;;;;;;;;;15.30;66.30;;;;;;5115044;28;19912;-68
2021/12/31 07:14:59;;;;;;;;;;;15.30;66.30;;;;;;5115016;28;20273;-68
2021/12/31 07:17:28;;;;;;;;;;;15.30;66.30;;;;;;5114657;28;20327;-68
2021/12/31 07:19:54;;;;;;;;;;;15.30;66.20;;;;;;5114850;28;19908;-68
2021/12/31 07:22:21;;;;;;;;;;;15.30;66.30;;;;;;5113867;28;19915;-68
2021/12/31 07:24:47;;;;;;;;;;;15.30;66.40;;;;;;5114665;28;20269;-68
2021/12/31 07:27:12;;;;;;;;;;;15.30;66.40;;;;;;5114719;28;19908;-68
2021/12/31 07:29:38;;;;;;;;;;;15.30;66.40;;;;;;5113322;28;19994;-68
2021/12/31 07:32:04;;;;;;;;;;;15.20;66.50;;;;;;5114595;28;19908;-67
2021/12/31 07:34:29;;;;;;;;;;;15.30;66.60;;;;;;5113241;28;20356;-68
2021/12/31 07:36:55;;;;;;;;;;;15.30;66.50;;;;;;5113147;28;19911;-68
2021/12/31 07:39:24;;;;;;;;;;;15.30;66.40;;;;;;5114485;28;19994;-68
2021/12/31 07:41:49;;;;;;;;;;;15.30;66.30;;;;;;5113072;28;19908;-68
2021/12/31 07:44:15;;;;;;;;;;;15.30;66.40;;;;;;5114426;28;19957;-68
2021/12/31 07:46:43;;;;;;;;;;;15.30;66.40;;;;;;5114352;28;19912;-68
2021/12/31 07:49:09;;;;;;;;;;;15.30;66.40;;;;;;5114373;28;20304;-68
2021/12/31 07:51:34;;;;;;;;;;;15.30;66.40;;;;;;5114185;28;19908;-68
2021/12/31 07:54:00;;;;;;;;;;;15.40;66.40;;;;;;5114191;28;19916;-68
2021/12/31 07:56:26;;;;;;;;;;;15.30;66.40;;;;;;5114024;28;19920;-68
2021/12/31 07:58:51;;;;;;;;;;;15.30;66.40;;;;;;5114107;28;19911;-68
2021/12/31 08:01:17;;;;;;;;;;;15.40;66.40;;;;;;5113961;28;20366;-67
2021/12/31 08:03:43;;;;;;;;;;;15.30;66.20;;;;;;5114059;28;19992;-68
2021/12/31 08:06:09;;;;;;;;;;;15.40;66.30;;;;;;5114021;28;19920;-68
2021/12/31 08:08:34;;;;;;;;;;;15.40;66.30;;;;;;5114017;27;19915;-68
2021/12/31 08:11:00;;;;;;;;;;;15.40;66.40;;;;;;5113850;28;19908;-68
2021/12/31 08:13:26;;;;;;;;;;;15.40;66.40;;;;;;5113905;28;20006;-68
2021/12/31 08:15:52;;;;;;;;;;;15.40;66.40;;;;;;5113572;28;20002;-67
2021/12/31 08:18:17;;;;;;;;;;;15.50;66.50;;;;;;5113799;28;19920;-68
2021/12/31 08:20:43;;;;;;;;;;;15.50;66.50;;;;;;5113857;28;20293;-68
2021/12/31 08:23:10;;;;;;;;;;;15.50;66.40;;;;;;5113655;28;19911;-68
2021/12/31 08:25:38;;;;;;;;;;;15.50;66.40;;;;;;5113711;28;19943;-68
2021/12/31 08:28:04;;;;;;;;;;;15.50;66.40;;;;;;5113703;28;19943;-68
2021/12/31 08:30:30;;;;;;;;;;;15.50;66.50;;;;;;5113734;28;19952;-68
2021/12/31 08:32:55;;;;;;;;;;;15.50;66.40;;;;;;5113806;28;19908;-67
2021/12/31 08:35:21;;;;;;;;;;;15.50;66.30;;;;;;5117989;28;20258;-67
2021/12/31 08:37:47;;;;;;;;;;;15.50;66.30;;;;;;5116551;28;19919;-67
2021/12/31 08:40:12;;;;;;;;;;;15.50;66.20;;;;;;5117828;28;19908;-67
2021/12/31 08:42:39;;;;;;;;;;;15.50;66.30;;;;;;5117838;28;20315;-67
2021/12/31 08:45:05;;;;;;;;;;;15.50;66.20;;;;;;5117870;28;19908;-69
2021/12/31 08:47:30;;;;;;;;;;;15.50;66.20;;;;;;5117677;27;19915;-68
2021/12/31 08:49:56;;;;;;;;;;;15.50;66.10;;;;;;5116449;28;20321;-69
2021/12/31 08:52:21;;;;;;;;;;;15.50;66.10;;;;;;5117573;28;19912;-68
2021/12/31 08:54:47;;;;;;;;;;;15.50;66.20;;;;;;5117655;28;20375;-68
2021/12/31 08:57:12;;;;;;;;;;;15.40;66.20;;;;;;5117521;28;20321;-68
2021/12/31 08:59:38;;;;;;;;;;;15.40;66.30;;;;;;5117599;28;19908;-69
2021/12/31 09:02:04;;;;;;;;;;;15.40;66.40;;;;;;5117512;28;19907;-68
2021/12/31 09:04:29;;;;;;;;;;;15.50;66.70;;;;;;5117527;28;20280;-68
2021/12/31 09:06:55;;;;;;;;;;;15.50;66.50;;;;;;5117557;28;19915;-68
2021/12/31 09:09:20;;;;;;;;;;;15.50;66.50;;;;;;5117481;28;19908;-69
2021/12/31 09:11:46;;;;;;;;;;;15.50;66.50;;;;;;5117418;28;19907;-69
2021/12/31 09:14:12;;;;;;;;;;;15.50;66.60;;;;;;5116132;28;19911;-69
2021/12/31 09:16:38;;;;;;;;;;;15.50;66.60;;;;;;5117158;28;20369;-69
2021/12/31 09:19:03;;;;;;;;;;;15.50;66.70;;;;;;5117256;28;19914;-68
2021/12/31 09:21:29;;;;;;;;;;;15.50;66.70;;;;;;5117216;28;20306;-67
2021/12/31 09:23:55;;;;;;;;;;;15.50;66.80;;;;;;5115968;28;19908;-69
2021/12/31 09:26:20;;;;;;;;;;;15.60;66.90;;;;;;5117178;28;19966;-68
2021/12/31 09:28:46;;;;;;;;;;;15.60;67.00;;;;;;5117053;28;19908;-68
2021/12/31 09:31:12;;;;;;;;;;;15.60;67.00;;;;;;5116929;28;19998;-68
2021/12/31 09:33:38;;;;;;;;;;;15.70;67.00;;;;;;5116967;28;19957;-68
2021/12/31 09:36:03;;;;;;;;;;;15.70;67.00;;;;;;5115591;28;20418;-68
2021/12/31 09:38:29;;;;;;;;;;;15.80;67.10;;;;;;5116723;28;19908;-68
2021/12/31 09:40:55;;;;;;;;;;;15.80;67.00;;;;;;5116823;28;19930;-68
2021/12/31 09:43:20;;;;;;;;;;;15.80;67.00;;;;;;5116804;28;20369;-68
2021/12/31 09:45:47;;;;;;;;;;;15.90;67.00;;;;;;5115614;28;20373;-68
2021/12/31 09:48:14;;;;;;;;;;;15.90;67.00;;;;;;5115401;28;19908;-68
2021/12/31 09:50:41;;;;;;;;;;;16.00;67.00;;;;;;5116707;28;19907;-68
2021/12/31 09:53:08;;;;;;;;;;;16.00;67.00;;;;;;5116583;28;19908;-68
2021/12/31 09:55:47;;;;;;;;;;;16.10;67.00;;;;;;5115290;28;19908;-68
2021/12/31 09:58:14;;;;;;;;;;;16.10;66.80;;;;;;5116442;28;19912;-68
2021/12/31 10:00:42;;;;;;;;;;;16.20;66.80;;;;;;5116377;28;19954;-68
2021/12/31 10:03:08;;;;;;;;;;;16.20;66.70;;;;;;5116306;28;19918;-68
2021/12/31 10:05:41;;;;;;;;;;;16.30;66.70;;;;;;5116311;28;19915;-68
2021/12/31 10:08:33;;;;;;;;;;;16.30;66.60;;;;;;5116274;28;20288;-68
2021/12/31 10:11:09;;;;;;;;;;;16.40;66.60;;;;;;5053218;28;20433;-68
2021/12/31 10:13:36;;;;;;;;;;;16.40;66.50;;;;;;5053441;28;19908;-68
2021/12/31 10:16:02;;;;;;;;;;;16.50;66.60;;;;;;5036331;28;19932;-68
2021/12/31 10:18:32;;;;;;;;;;;16.60;66.50;;;;;;5053271;28;19908;-69
2021/12/31 10:20:58;;;;;;;;;;;16.60;66.50;;;;;;5036580;28;19924;-69
2021/12/31 10:23:23;;;;;;;;;;;16.70;66.50;;;;;;5053054;28;19913;-69
2021/12/31 10:25:49;;;;;;;;;;;16.80;66.50;;;;;;5036348;28;19909;-68
2021/12/31 10:28:15;;;;;;;;;;;16.90;66.30;;;;;;5053052;28;19944;-69
2021/12/31 10:30:41;;;;;;;;;;;17.00;65.90;;;;;;5053204;28;20413;-69
2021/12/31 10:33:07;;;;;;;;;;;17.00;65.60;;;;;;5053403;28;20309;-69
2021/12/31 10:35:38;;;;;;;;;;;17.10;65.50;;;;;;5053344;28;19915;-68
2021/12/31 10:38:06;;;;;;;;;;;17.10;65.20;;;;;;5053348;28;19920;-69
2021/12/31 10:40:31;;;;;;;;;;;17.10;64.90;;;;;;5052939;28;20319;-68
2021/12/31 10:43:06;;;;;;;;;;;17.10;64.80;;;;;;5052756;28;19951;-68
2021/12/31 10:45:32;;;;;;;;;;;17.10;64.50;;;;;;5036211;28;19960;-69
2021/12/31 10:48:04;;;;;;;;;;;17.10;64.60;;;;;;5077522;28;20273;-69
2021/12/31 10:50:32;;;;;;;;;;;17.10;64.50;;;;;;5094980;28;19912;-68
2021/12/31 10:53:07;;;;;;;;;;;17.20;64.40;;;;;;5094979;28;20007;-68
2021/12/31 10:55:39;;;;;;;;;;;17.20;64.40;;;;;;5095057;28;19908;-68
2021/12/31 10:58:06;;;;;;;;;;;17.20;64.40;;;;;;5102804;28;20301;-68
2021/12/31 11:00:33;;;;;;;;;;;17.20;64.30;;;;;;5104194;28;19923;-68
2021/12/31 11:02:59;;;;;;;;;;;17.30;64.40;;;;;;5091983;28;19908;-68
2021/12/31 11:05:26;;;;;;;;;;;17.30;64.40;;;;;;5093814;28;19916;-68
2021/12/31 11:07:52;;;;;;;;;;;17.30;64.40;;;;;;5093824;28;20384;-69
2021/12/31 11:10:19;;;;;;;;;;;17.40;64.50;;;;;;5093668;28;19919;-69
2021/12/31 11:12:48;;;;;;;;;;;17.40;64.40;;;;;;5094705;28;19912;-69
2021/12/31 11:15:15;;;;;;;;;;;17.50;64.40;;;;;;5093763;28;20387;-69
2021/12/31 11:17:40;;;;;;;;;;;17.60;64.20;;;;;;5092023;28;19920;-69
2021/12/31 11:20:07;;;;;;;;;;;17.60;64.00;;;;;;5093484;28;19961;-69
2021/12/31 11:22:32;;;;;;;;;;;17.60;64.20;;;;;;5093883;28;19908;-69
2021/12/31 11:25:16;;;;;;;;;;;17.70;64.70;;;;;;5093698;28;19922;-66
2021/12/31 11:27:45;;;;;;;;;;;17.80;64.50;;;;;;5109477;28;19912;-67
2021/12/31 11:30:43;;;;;;;;;;;17.90;63.80;;;;;;5113786;28;19907;-67
2021/12/31 11:33:08;;;;;;;;;;;18.00;63.40;;;;;;5050877;28;19917;-66
2021/12/31 11:35:34;;;;;;;;;;;18.00;63.10;;;;;;5050540;28;19916;-68
2021/12/31 11:38:02;;;;;;;;;;;18.10;63.00;;;;;;5050721;28;19921;-68
2021/12/31 11:40:32;;;;;;;;;;;18.10;62.50;;;;;;5033953;28;19975;-74
2021/12/31 11:43:12;;;;;;;;;;;18.10;62.60;;;;;;5034123;28;19939;-69
2021/12/31 11:45:38;;;;;;;;;;;18.10;62.60;;;;;;5046489;28;20016;-69
2021/12/31 11:48:23;;;;;;;;;;;18.10;62.40;;;;;;5026012;28;19909;-69
2021/12/31 11:51:04;;;;;;;;;;;18.10;62.40;;;;;;5033049;28;20376;-67
2021/12/31 11:53:30;;;;;;;;;;;18.10;62.30;;;;;;5037171;28;19912;-67
2021/12/31 11:55:55;;;;;;;;;;;18.10;62.10;;;;;;5050196;28;20047;-70
2021/12/31 11:58:40;;;;;;;;;;;18.10;61.90;;;;;;5049422;28;20520;-70
2021/12/31 12:01:24;;;;;;;;;;;18.10;61.80;;;;;;5050673;28;20322;-68
2021/12/31 12:04:10;;;;;;;;;;;18.10;61.80;;;;;;5031318;28;19978;-71
2021/12/31 12:06:51;;;;;;;;;;;18.10;61.60;;;;;;5029928;28;19938;-70
2021/12/31 12:09:16;;;;;;;;;;;18.10;61.50;;;;;;5075115;28;19908;-71
2021/12/31 12:11:58;;;;;;;;;;;18.10;61.30;;;;;;5092906;28;20292;-70
2021/12/31 12:14:28;;;;;;;;;;;18.10;61.10;;;;;;5091543;28;19951;-71
2021/12/31 12:16:57;;;;;;;;;;;18.10;60.90;;;;;;5092494;28;19927;-71
2021/12/31 12:19:43;;;;;;;;;;;18.10;60.80;;;;;;5092740;28;19913;-70
2021/12/31 12:22:08;;;;;;;;;;;18.10;60.60;;;;;;5091280;28;20397;-71
2021/12/31 12:24:35;;;;;;;;;;;18.10;60.60;;;;;;5092635;28;19915;-69
2021/12/31 12:27:01;;;;;;;;;;;18.10;60.60;;;;;;5105737;28;19908;-69
2021/12/31 12:29:27;;;;;;;;;;;18.10;60.30;;;;;;5111675;28;20010;-71
2021/12/31 12:32:08;;;;;;;;;;;18.10;60.10;;;;;;5113118;28;20049;-71
2021/12/31 12:34:34;;;;;;;;;;;18.10;60.00;;;;;;5112918;28;19908;-71
2021/12/31 12:37:01;;;;;;;;;;;18.10;60.00;;;;;;5112710;28;20018;-71
2021/12/31 12:39:26;;;;;;;;;;;18.10;60.00;;;;;;5112907;28;19908;-71
2021/12/31 12:41:52;;;;;;;;;;;18.10;59.90;;;;;;5112980;28;19908;-70
2021/12/31 12:44:17;;;;;;;;;;;18.10;59.90;;;;;;5112939;28;19915;-71
2021/12/31 12:46:56;;;;;;;;;;;18.10;60.00;;;;;;5112848;28;20357;-69
2021/12/31 12:49:24;;;;;;;;;;;18.10;59.90;;;;;;5112730;28;19919;-69
2021/12/31 12:51:50;;;;;;;;;;;18.10;59.80;;;;;;5112703;28;19908;-69
2021/12/31 12:54:21;;;;;;;;;;;18.10;59.70;;;;;;5112863;28;19991;-69
2021/12/31 12:56:50;;;;;;;;;;;18.10;59.70;;;;;;5112526;28;20335;-69
2021/12/31 12:59:22;;;;;;;;;;;18.10;59.70;;;;;;5112543;28;19914;-69
2021/12/31 13:01:49;;;;;;;;;;;18.10;59.70;;;;;;5112453;28;19908;-70
2021/12/31 13:04:17;;;;;;;;;;;18.10;59.60;;;;;;5111302;28;19908;-69
2021/12/31 13:06:44;;;;;;;;;;;18.10;59.60;;;;;;5112665;28;19930;-69
2021/12/31 13:09:15;;;;;;;;;;;18.10;59.60;;;;;;5112576;28;19930;-69
2021/12/31 13:11:59;;;;;;;;;;;18.10;59.70;;;;;;5112570;28;20346;-70
2021/12/31 13:14:28;;;;;;;;;;;18.10;59.50;;;;;;5112551;28;19908;-70
2021/12/31 13:16:54;;;;;;;;;;;18.10;59.50;;;;;;5112248;28;20372;-70
2021/12/31 13:19:28;;;;;;;;;;;18.10;59.50;;;;;;5110929;28;19922;-70
2021/12/31 13:22:02;;;;;;;;;;;18.10;59.40;;;;;;5106460;28;19908;-70
2021/12/31 13:24:28;;;;;;;;;;;18.10;59.40;;;;;;5115880;28;19908;-68
2021/12/31 13:26:55;;;;;;;;;;;18.00;59.20;;;;;;5106728;28;20002;-69
2021/12/31 13:29:38;;;;;;;;;;;18.00;59.20;;;;;;5116116;28;19957;-70
2021/12/31 13:32:16;;;;;;;;;;;18.00;59.20;;;;;;5110931;28;19912;-70
2021/12/31 13:34:43;;;;;;;;;;;18.10;59.30;;;;;;5110265;28;19977;-70
2021/12/31 13:37:08;;;;;;;;;;;18.00;59.20;;;;;;5095475;28;19920;-70
2021/12/31 13:39:39;;;;;;;;;;;18.00;59.00;;;;;;5095389;28;19908;-70
2021/12/31 13:42:12;;;;;;;;;;;18.00;59.10;;;;;;5103500;28;19973;-68
2021/12/31 13:44:38;;;;;;;;;;;18.00;59.00;;;;;;5096841;28;20023;-68
2021/12/31 13:47:10;;;;;;;;;;;18.00;59.00;;;;;;5095626;28;19919;-67
2021/12/31 13:49:38;;;;;;;;;;;18.00;59.00;;;;;;5093954;28;19912;-69
2021/12/31 13:52:27;;;;;;;;;;;17.90;58.80;;;;;;5095620;28;19920;-68
2021/12/31 13:54:54;;;;;;;;;;;17.90;58.80;;;;;;5084556;28;19912;-67
2021/12/31 13:57:25;;;;;;;;;;;17.90;58.80;;;;;;5095145;28;19961;-67
2021/12/31 13:59:51;;;;;;;;;;;17.90;58.80;;;;;;5093932;28;19948;-68
2021/12/31 14:02:21;;;;;;;;;;;17.80;58.70;;;;;;5093942;28;19908;-67
2021/12/31 14:05:07;;;;;;;;;;;17.80;58.70;;;;;;5095210;28;19948;-68
2021/12/31 14:07:52;;;;;;;;;;;17.70;58.70;;;;;;5087553;28;19918;-67
2021/12/31 14:10:25;;;;;;;;;;;17.70;58.70;;;;;;5095221;28;20400;-67
2021/12/31 14:12:50;;;;;;;;;;;17.60;58.70;;;;;;5095193;28;19909;-68
2021/12/31 14:15:17;;;;;;;;;;;17.60;58.70;;;;;;5093701;28;19922;-68
2021/12/31 14:17:46;;;;;;;;;;;17.50;58.70;;;;;;5093329;28;19927;-68
2021/12/31 14:20:11;;;;;;;;;;;17.50;59.40;;;;;;5096677;27;19958;-69
2021/12/31 14:22:37;;;;;;;;;;;17.40;58.80;;;;;;5094927;28;20310;-69